Time;durP1;ratioP1;P1;durP2;ratioP2;P2;SDS_P1;SDS_P2;PMS_P1;PMS_P2;Temp;Humidity;BMP_temperature;BMP_pressure;BME280_temperature;BME280_humidity;BME280_pressure;Samples;Min_cycle;Max_cycle;Signal;HPM_P1;HPM_P2
2021/06/08 00:00:59;;;;;;;7.00;6.27;;;20.00;1.00;;;;;;5004876;28;20451;-76
2021/06/08 00:03:26;;;;;;;7.00;6.40;;;19.90;1.00;;;;;;5007732;28;20455;-76
2021/06/08 00:05:53;;;;;;;6.80;6.30;;;19.90;1.00;;;;;;5006463;28;20462;-77
2021/06/08 00:08:20;;;;;;;7.00;6.50;;;19.90;1.00;;;;;;4997247;28;20453;-77
2021/06/08 00:10:46;;;;;;;8.00;7.30;;;19.80;1.00;;;;;;5007545;28;20968;-79
2021/06/08 00:13:13;;;;;;;7.40;6.80;;;19.80;1.00;;;;;;5011590;28;20461;-77
2021/06/08 00:15:39;;;;;;;6.97;6.43;;;19.70;1.00;;;;;;5010124;28;20410;-78
2021/06/08 00:18:05;;;;;;;8.27;7.57;;;19.60;1.00;;;;;;5008994;28;20456;-76
2021/06/08 00:20:31;;;;;;;6.33;5.90;;;19.50;1.00;;;;;;5009729;28;20446;-73
2021/06/08 00:22:59;;;;;;;7.57;7.07;;;19.50;1.00;;;;;;5011470;28;20503;-76
2021/06/08 00:25:25;;;;;;;6.50;6.00;;;19.50;1.00;;;;;;5011499;28;20453;-78
2021/06/08 00:27:52;;;;;;;7.53;6.90;;;19.50;1.00;;;;;;5009326;28;20483;-77
2021/06/08 00:30:18;;;;;;;7.43;6.87;;;19.50;1.00;;;;;;5011724;28;20490;-78
2021/06/08 00:32:44;;;;;;;6.77;6.27;;;19.50;1.00;;;;;;5011241;28;21033;-77
2021/06/08 00:35:11;;;;;;;7.57;6.90;;;19.40;1.00;;;;;;5005763;28;20453;-79
2021/06/08 00:37:39;;;;;;;8.07;7.33;;;19.30;1.00;;;;;;5008388;28;20457;-76
2021/06/08 00:40:08;;;;;;;7.87;7.20;;;19.20;1.00;;;;;;5014482;28;20922;-76
2021/06/08 00:42:36;;;;;;;8.00;7.43;;;19.20;1.00;;;;;;5008219;28;20487;-77
2021/06/08 00:45:04;;;;;;;7.63;7.10;;;19.20;1.00;;;;;;5010493;28;20444;-76
2021/06/08 00:47:31;;;;;;;7.93;7.40;;;19.10;1.00;;;;;;5007371;28;20433;-76
2021/06/08 00:49:57;;;;;;;7.40;6.80;;;19.10;1.00;;;;;;5006996;28;20445;-78
2021/06/08 00:52:23;;;;;;;7.27;6.67;;;19.10;1.00;;;;;;4987735;28;20669;-77
2021/06/08 00:54:50;;;;;;;8.27;7.57;;;19.10;1.00;;;;;;5010523;28;20486;-76
2021/06/08 00:57:18;;;;;;;8.80;8.07;;;19.00;1.00;;;;;;5007247;28;20732;-77
2021/06/08 00:59:44;;;;;;;9.83;8.83;;;19.00;1.00;;;;;;5006878;28;20762;-76
2021/06/08 01:02:10;;;;;;;8.60;7.90;;;19.10;1.00;;;;;;5015397;28;20449;-76
2021/06/08 01:04:36;;;;;;;9.97;8.97;;;19.10;1.00;;;;;;5013953;28;21305;-76
2021/06/08 01:07:03;;;;;;;10.13;9.10;;;19.10;1.00;;;;;;5012179;28;21077;-75
2021/06/08 01:09:29;;;;;;;8.47;7.77;;;19.00;1.00;;;;;;5008065;28;20446;-75
2021/06/08 01:11:55;;;;;;;8.90;8.20;;;19.00;1.00;;;;;;5005867;28;20485;-76
2021/06/08 01:14:23;;;;;;;8.57;7.87;;;18.90;1.00;;;;;;5003300;28;20480;-78
2021/06/08 01:16:49;;;;;;;8.90;8.00;;;18.90;1.00;;;;;;5007093;28;21721;-77
2021/06/08 01:19:16;;;;;;;9.17;8.37;;;18.80;1.00;;;;;;5004862;28;20527;-77
2021/06/08 01:21:43;;;;;;;9.33;8.63;;;18.80;1.00;;;;;;5007886;28;20464;-78
2021/06/08 01:24:10;;;;;;;9.00;8.30;;;18.70;1.00;;;;;;5004897;28;20437;-78
2021/06/08 01:26:37;;;;;;;9.30;8.40;;;18.70;1.00;;;;;;5008591;28;20460;-77
2021/06/08 01:29:05;;;;;;;8.63;7.97;;;18.60;1.00;;;;;;5010318;28;20428;-76
2021/06/08 01:31:34;;;;;;;8.60;8.00;;;18.60;1.00;;;;;;5006610;28;20465;-76
2021/06/08 01:34:00;;;;;;;8.37;7.77;;;18.60;1.00;;;;;;5006354;28;21467;-76
2021/06/08 01:36:35;;;;;;;9.37;8.60;;;18.70;1.00;;;;;;5007467;28;20456;-77
2021/06/08 01:39:03;;;;;;;9.20;8.50;;;18.70;1.00;;;;;;5008628;28;20533;-76
2021/06/08 01:41:30;;;;;;;8.53;7.93;;;18.70;1.00;;;;;;5007620;28;20468;-77
2021/06/08 01:43:57;;;;;;;9.73;8.70;;;18.70;1.00;;;;;;5011159;28;20454;-77
2021/06/08 01:46:23;;;;;;;9.77;8.97;;;18.70;1.00;;;;;;5006987;28;20583;-78
2021/06/08 01:48:50;;;;;;;8.80;8.10;;;18.70;1.00;;;;;;5011513;28;20444;-78
2021/06/08 01:51:23;;;;;;;8.80;8.10;;;18.70;1.00;;;;;;4990791;28;20468;-80
2021/06/08 01:54:02;;;;;;;9.00;8.30;;;18.70;1.00;;;;;;5008045;28;20452;-78
2021/06/08 01:56:34;;;;;;;9.23;8.43;;;18.70;1.00;;;;;;5017304;28;20455;-77
2021/06/08 01:59:21;;;;;;;8.80;8.03;;;18.70;1.00;;;;;;5010962;28;20490;-79
2021/06/08 02:01:53;;;;;;;10.70;8.20;;;18.70;1.00;;;;;;5009776;28;20456;-79
2021/06/08 02:04:26;;;;;;;9.33;8.63;;;18.70;1.00;;;;;;5012656;28;20487;-77
2021/06/08 02:07:08;;;;;;;9.07;8.43;;;18.70;1.00;;;;;;5007334;28;20558;-78
2021/06/08 02:09:38;;;;;;;9.80;9.00;;;18.60;1.00;;;;;;5009069;28;20456;-78
2021/06/08 02:12:14;;;;;;;9.33;8.63;;;18.60;1.00;;;;;;5010335;28;20421;-79
2021/06/08 02:14:45;;;;;;;8.83;8.13;;;18.50;1.00;;;;;;5010686;28;20627;-78
2021/06/08 02:17:16;;;;;;;8.67;7.97;;;18.40;1.00;;;;;;5011966;28;20478;-78
2021/06/08 02:19:45;;;;;;;10.67;9.87;;;18.40;1.00;;;;;;5008217;28;22629;-76
2021/06/08 02:22:13;;;;;;;9.20;8.40;;;18.30;1.00;;;;;;5012082;28;20541;-78
2021/06/08 02:24:41;;;;;;;10.97;9.87;;;18.30;1.00;;;;;;5009090;28;20448;-78
2021/06/08 02:27:11;;;;;;;9.97;9.17;;;18.30;1.00;;;;;;5005951;28;20507;-76
2021/06/08 02:29:38;;;;;;;9.20;8.60;;;18.20;1.00;;;;;;5008967;28;20452;-78
2021/06/08 02:32:08;;;;;;;9.90;9.20;;;18.20;1.00;;;;;;5009113;28;20459;-76
2021/06/08 02:34:34;;;;;;;10.03;9.13;;;18.20;1.00;;;;;;5007836;28;20456;-77
2021/06/08 02:37:02;;;;;;;10.23;9.20;;;18.20;1.00;;;;;;5010276;28;20440;-76
2021/06/08 02:39:29;;;;;;;10.83;9.93;;;18.20;1.00;;;;;;5009160;28;20485;-75
2021/06/08 02:41:57;;;;;;;9.20;8.40;;;18.20;1.00;;;;;;5005943;28;20971;-77
2021/06/08 02:44:25;;;;;;;10.70;9.77;;;18.20;1.00;;;;;;5005134;28;20480;-75
2021/06/08 02:46:52;;;;;;;10.17;9.30;;;18.20;1.00;;;;;;5009281;28;20460;-77
2021/06/08 02:49:20;;;;;;;11.80;10.70;;;18.10;1.00;;;;;;5010540;28;20462;-77
2021/06/08 02:51:46;;;;;;;11.40;10.30;;;18.10;1.00;;;;;;5008389;28;20484;-76
2021/06/08 02:54:13;;;;;;;10.77;9.90;;;18.10;1.00;;;;;;5006582;28;20486;-77
2021/06/08 02:56:40;;;;;;;11.17;10.37;;;18.10;1.00;;;;;;5005828;28;20456;-75
2021/06/08 02:59:06;;;;;;;10.77;9.77;;;18.10;1.00;;;;;;5004805;28;20465;-76
2021/06/08 03:01:39;;;;;;;9.60;8.83;;;18.10;1.00;;;;;;5009080;28;20579;-76
2021/06/08 03:04:07;;;;;;;9.27;8.57;;;18.10;1.00;;;;;;5008349;28;20456;-75
2021/06/08 03:06:36;;;;;;;9.00;8.30;;;18.10;1.00;;;;;;5015875;28;20498;-74
2021/06/08 03:09:07;;;;;;;9.93;9.10;;;18.10;1.00;;;;;;5006108;28;20610;-75
2021/06/08 03:11:37;;;;;;;9.90;9.17;;;18.10;1.00;;;;;;5008916;28;20482;-76
2021/06/08 03:14:06;;;;;;;10.20;9.40;;;18.10;1.00;;;;;;5009710;28;20512;-77
2021/06/08 03:16:38;;;;;;;10.30;9.30;;;18.00;1.00;;;;;;5007489;28;20508;-76
2021/06/08 03:19:07;;;;;;;11.03;9.93;;;18.10;1.00;;;;;;5007500;28;20416;-77
2021/06/08 03:21:37;;;;;;;9.77;8.80;;;18.00;1.00;;;;;;5006787;28;20462;-76
2021/06/08 03:24:06;;;;;;;12.53;11.60;;;18.00;1.00;;;;;;5013322;28;20611;-77
2021/06/08 03:26:35;;;;;;;11.70;9.80;;;18.00;1.00;;;;;;5005620;28;21692;-76
2021/06/08 03:29:04;;;;;;;10.70;9.60;;;18.00;1.00;;;;;;5010051;28;20561;-76
2021/06/08 03:31:30;;;;;;;9.83;8.90;;;18.00;1.00;;;;;;5009461;28;20487;-78
2021/06/08 03:33:58;;;;;;;10.73;9.50;;;18.00;1.00;;;;;;5011044;28;20977;-77
2021/06/08 03:36:26;;;;;;;11.50;10.50;;;17.90;1.00;;;;;;5006989;28;20460;-78
2021/06/08 03:38:53;;;;;;;12.93;10.60;;;17.90;1.00;;;;;;5011859;28;20496;-77
2021/06/08 03:41:21;;;;;;;12.10;10.87;;;17.90;1.00;;;;;;5009419;28;20496;-78
2021/06/08 03:43:48;;;;;;;12.00;10.93;;;17.90;1.00;;;;;;5008101;28;20496;-78
2021/06/08 03:46:16;;;;;;;13.13;12.10;;;17.90;1.00;;;;;;5008054;28;20451;-77
2021/06/08 03:48:42;;;;;;;13.60;12.20;;;17.90;1.00;;;;;;5011150;28;20464;-77
2021/06/08 03:51:11;;;;;;;13.27;12.17;;;17.90;1.00;;;;;;5006316;28;20470;-77
2021/06/08 03:53:38;;;;;;;14.70;13.17;;;17.90;1.00;;;;;;5009257;28;20469;-78
2021/06/08 03:56:06;;;;;;;13.57;12.47;;;17.90;1.00;;;;;;5010702;28;20525;-77
2021/06/08 03:58:33;;;;;;;13.63;12.33;;;18.00;1.00;;;;;;5008730;28;21134;-76
2021/06/08 04:01:01;;;;;;;14.33;12.47;;;18.00;1.00;;;;;;5012233;28;20462;-77
2021/06/08 04:03:28;;;;;;;15.57;13.80;;;18.00;1.00;;;;;;5008004;28;20434;-76
2021/06/08 04:05:55;;;;;;;15.43;13.93;;;18.00;1.00;;;;;;5008354;28;20448;-75
2021/06/08 04:08:25;;;;;;;14.53;13.33;;;18.00;1.00;;;;;;5006745;28;20451;-76
2021/06/08 04:10:52;;;;;;;15.10;13.80;;;18.00;1.00;;;;;;5008002;28;20584;-76
2021/06/08 04:13:19;;;;;;;17.23;15.03;;;18.00;1.00;;;;;;5007444;28;20480;-76
2021/06/08 04:15:47;;;;;;;31.17;16.73;;;18.00;1.00;;;;;;5015165;28;20473;-76
2021/06/08 04:18:13;;;;;;;15.57;14.10;;;18.00;1.00;;;;;;5009172;28;20445;-75
2021/06/08 04:20:40;;;;;;;17.43;14.63;;;18.10;1.00;;;;;;5007889;28;20469;-77
2021/06/08 04:23:07;;;;;;;16.90;15.07;;;18.10;1.00;;;;;;5005776;28;20514;-77
2021/06/08 04:25:35;;;;;;;20.27;16.27;;;18.10;1.00;;;;;;5010509;28;21127;-77
2021/06/08 04:28:02;;;;;;;15.10;13.70;;;18.20;1.00;;;;;;5010348;28;20459;-76
2021/06/08 04:30:28;;;;;;;14.93;13.70;;;18.20;1.00;;;;;;5010796;28;20987;-79
2021/06/08 04:32:55;;;;;;;14.43;13.23;;;18.30;1.00;;;;;;5015164;28;20516;-80
2021/06/08 04:35:21;;;;;;;16.43;15.07;;;18.30;1.00;;;;;;5015887;28;20469;-80
2021/06/08 04:37:48;;;;;;;15.80;14.30;;;18.40;1.00;;;;;;5015653;28;20565;-81
2021/06/08 04:40:16;;;;;;;14.27;13.00;;;18.50;1.00;;;;;;5017314;28;20483;-78
2021/06/08 04:42:46;;;;;;;14.57;13.27;;;18.50;1.00;;;;;;5008627;28;20451;-76
2021/06/08 04:45:13;;;;;;;14.40;13.20;;;18.60;1.00;;;;;;5007403;28;20439;-76
2021/06/08 04:47:40;;;;;;;19.27;15.50;;;18.70;1.00;;;;;;5008228;28;20468;-76
2021/06/08 04:50:08;;;;;;;15.33;13.90;;;18.70;1.00;;;;;;5007936;28;20508;-74
2021/06/08 04:52:34;;;;;;;15.13;13.73;;;18.80;1.00;;;;;;4987534;28;20441;-75
2021/06/08 04:55:01;;;;;;;19.33;14.00;;;18.80;1.00;;;;;;5007516;28;20520;-75
2021/06/08 04:57:28;;;;;;;14.80;13.50;;;18.90;1.00;;;;;;5008037;28;20465;-74
2021/06/08 05:00:03;;;;;;;14.80;13.30;;;19.00;1.00;;;;;;5010664;28;20472;-75
2021/06/08 05:02:38;;;;;;;14.17;13.00;;;19.10;1.00;;;;;;5011635;28;20596;-74
2021/06/08 05:05:08;;;;;;;14.57;13.23;;;19.00;1.00;;;;;;5010871;28;20468;-77
2021/06/08 05:07:38;;;;;;;15.03;13.73;;;19.10;1.00;;;;;;5010548;28;20457;-74
2021/06/08 05:10:06;;;;;;;14.80;13.50;;;19.20;1.00;;;;;;5009179;28;20453;-75
2021/06/08 05:12:34;;;;;;;13.80;12.70;;;19.30;1.00;;;;;;5011623;28;20480;-75
2021/06/08 05:15:03;;;;;;;14.60;12.47;;;19.30;1.00;;;;;;5008651;28;20484;-75
2021/06/08 05:17:31;;;;;;;13.40;12.33;;;19.40;1.00;;;;;;5009045;28;20517;-76
2021/06/08 05:19:58;;;;;;;13.30;12.00;;;19.50;1.00;;;;;;5003550;28;20955;-75
2021/06/08 05:22:25;;;;;;;13.20;11.90;;;19.60;1.00;;;;;;5014598;28;20484;-75
2021/06/08 05:24:53;;;;;;;16.37;14.13;;;19.60;1.00;;;;;;5007715;28;20484;-76
2021/06/08 05:27:21;;;;;;;16.13;13.00;;;19.70;1.00;;;;;;5011425;28;20993;-75
2021/06/08 05:29:51;;;;;;;13.03;12.00;;;19.80;1.00;;;;;;5009706;28;21764;-76
2021/06/08 05:32:19;;;;;;;13.83;12.57;;;19.90;1.00;;;;;;5012379;28;20523;-76
2021/06/08 05:34:45;;;;;;;14.10;12.70;;;20.00;1.00;;;;;;5008430;28;20466;-75
2021/06/08 05:37:13;;;;;;;12.30;11.13;;;20.10;1.00;;;;;;5009676;28;20512;-76
2021/06/08 05:39:41;;;;;;;14.20;12.60;;;20.20;1.00;;;;;;5019096;28;20468;-76
2021/06/08 05:42:10;;;;;;;13.40;12.10;;;20.30;1.00;;;;;;5011702;28;20457;-76
2021/06/08 05:44:36;;;;;;;17.03;15.43;;;20.50;1.00;;;;;;4995539;28;20534;-75
2021/06/08 05:47:04;;;;;;;12.50;11.20;;;20.60;1.00;;;;;;5012045;28;20973;-75
2021/06/08 05:49:31;;;;;;;11.77;10.73;;;20.80;1.00;;;;;;5010682;28;20528;-76
2021/06/08 05:51:59;;;;;;;23.10;12.27;;;21.10;1.00;;;;;;5010296;28;20458;-75
2021/06/08 05:54:27;;;;;;;12.07;11.03;;;21.40;1.00;;;;;;4992854;28;20467;-76
2021/06/08 05:56:54;;;;;;;14.93;12.63;;;21.70;1.00;;;;;;5011513;28;20557;-76
2021/06/08 05:59:20;;;;;;;28.77;12.20;;;22.00;1.00;;;;;;5007028;28;21055;-75
2021/06/08 06:01:47;;;;;;;12.60;11.30;;;22.40;1.00;;;;;;5012414;28;20435;-75
2021/06/08 06:04:16;;;;;;;25.90;15.57;;;22.60;1.00;;;;;;5010034;28;20458;-76
2021/06/08 06:06:46;;;;;;;14.50;11.13;;;22.80;1.00;;;;;;5008623;28;20538;-76
2021/06/08 06:09:13;;;;;;;10.87;9.97;;;23.00;1.00;;;;;;5010048;28;20479;-75
2021/06/08 06:11:41;;;;;;;11.40;10.40;;;23.10;1.00;;;;;;5009980;28;20453;-75
2021/06/08 06:14:08;;;;;;;11.33;10.10;;;23.10;1.00;;;;;;5009873;28;20461;-77
2021/06/08 06:16:39;;;;;;;15.80;12.00;;;23.00;1.00;;;;;;5010849;28;20458;-76
2021/06/08 06:19:06;;;;;;;11.03;10.00;;;23.10;1.00;;;;;;4996589;28;20571;-77
2021/06/08 06:21:33;;;;;;;10.50;9.60;;;23.20;1.00;;;;;;5010705;28;20452;-77
2021/06/08 06:24:03;;;;;;;11.07;9.97;;;23.30;1.00;;;;;;5013211;28;20536;-76
2021/06/08 06:26:30;;;;;;;11.50;10.40;;;23.40;1.00;;;;;;5007808;28;20441;-75
2021/06/08 06:28:56;;;;;;;10.80;9.80;;;23.40;1.00;;;;;;5006634;28;20542;-76
2021/06/08 06:31:23;;;;;;;10.30;9.50;;;23.40;1.00;;;;;;5006148;28;20493;-75
2021/06/08 06:33:52;;;;;;;10.70;9.77;;;23.40;1.00;;;;;;5007868;28;20475;-75
2021/06/08 06:36:20;;;;;;;11.83;10.93;;;23.50;1.00;;;;;;5006720;28;20541;-76
2021/06/08 06:38:49;;;;;;;13.17;11.67;;;23.50;1.00;;;;;;5013337;28;21434;-77
2021/06/08 06:41:18;;;;;;;13.30;11.97;;;23.50;1.00;;;;;;5007320;28;20494;-77
2021/06/08 06:43:50;;;;;;;12.30;10.50;;;23.60;1.00;;;;;;5008752;28;20440;-76
2021/06/08 06:46:17;;;;;;;11.03;9.27;;;23.70;1.00;;;;;;5011891;28;20468;-76
2021/06/08 06:48:44;;;;;;;12.03;10.90;;;23.80;1.00;;;;;;5009685;28;20463;-77
2021/06/08 06:51:11;;;;;;;12.13;10.70;;;24.00;1.00;;;;;;5011396;28;20444;-77
2021/06/08 06:53:37;;;;;;;11.50;10.40;;;24.10;1.00;;;;;;5009688;28;20966;-76
2021/06/08 06:56:04;;;;;;;10.53;9.63;;;24.10;1.00;;;;;;5010771;28;20512;-76
2021/06/08 06:58:33;;;;;;;11.03;9.70;;;24.20;1.00;;;;;;5007286;28;20454;-75
2021/06/08 07:00:59;;;;;;;10.57;9.60;;;24.30;1.00;;;;;;5010632;28;20497;-76
2021/06/08 07:03:30;;;;;;;11.63;10.50;;;24.30;1.00;;;;;;5010158;28;20500;-76
2021/06/08 07:05:57;;;;;;;10.60;9.60;;;24.40;1.00;;;;;;5011703;28;20527;-76
2021/06/08 07:08:25;;;;;;;9.87;8.90;;;24.50;1.00;;;;;;5011341;28;20951;-76
2021/06/08 07:10:51;;;;;;;9.60;8.87;;;24.50;1.00;;;;;;5010194;28;20462;-76
2021/06/08 07:13:18;;;;;;;9.33;8.37;;;24.30;1.00;;;;;;5007676;28;20479;-76
2021/06/08 07:15:46;;;;;;;11.77;10.10;;;24.10;1.00;;;;;;5010388;28;20456;-76
2021/06/08 07:18:13;;;;;;;10.77;9.70;;;24.10;1.00;;;;;;5008635;28;20473;-76
2021/06/08 07:20:40;;;;;;;10.90;9.87;;;24.10;1.00;;;;;;5012804;28;20451;-76
2021/06/08 07:23:07;;;;;;;9.87;8.90;;;24.20;1.00;;;;;;5009162;28;20498;-74
2021/06/08 07:25:36;;;;;;;12.63;9.50;;;24.20;1.00;;;;;;5011840;28;20483;-75
2021/06/08 07:28:05;;;;;;;9.73;8.93;;;24.20;1.00;;;;;;5009569;28;20502;-74
2021/06/08 07:30:32;;;;;;;9.50;8.63;;;24.30;1.00;;;;;;5007693;28;20480;-75
2021/06/08 07:33:10;;;;;;;9.63;8.80;;;24.30;1.00;;;;;;5005584;28;20449;-75
2021/06/08 07:35:45;;;;;;;10.53;9.37;;;24.30;1.00;;;;;;5006411;28;20475;-80
2021/06/08 07:38:18;;;;;;;11.10;10.00;;;24.30;1.00;;;;;;5021574;28;20454;-77
2021/06/08 07:40:54;;;;;;;12.17;9.53;;;24.30;1.00;;;;;;5017836;28;20549;-77
2021/06/08 07:43:25;;;;;;;8.30;7.53;;;24.30;1.00;;;;;;5017194;28;20478;-78
2021/06/08 07:45:52;;;;;;;12.20;8.40;;;24.50;1.00;;;;;;5017050;28;20437;-78
2021/06/08 07:48:25;;;;;;;8.30;7.50;;;24.50;1.00;;;;;;5018271;28;20479;-77
2021/06/08 07:50:54;;;;;;;9.23;8.33;;;24.60;1.00;;;;;;5010945;28;20542;-77
2021/06/08 07:53:22;;;;;;;11.70;8.40;;;24.70;1.00;;;;;;5012201;28;20490;-76
2021/06/08 07:55:49;;;;;;;8.60;7.00;;;24.80;1.00;;;;;;5013417;28;20472;-77
2021/06/08 07:58:22;;;;;;;11.77;8.17;;;25.00;1.00;;;;;;5015660;28;20458;-77
2021/06/08 08:00:49;;;;;;;7.00;6.40;;;25.20;1.00;;;;;;5010571;28;20573;-76
2021/06/08 08:03:26;;;;;;;7.43;6.73;;;25.30;1.00;;;;;;5014454;28;20469;-80
2021/06/08 08:05:55;;;;;;;7.43;6.73;;;25.40;1.00;;;;;;5018141;28;20522;-81
2021/06/08 08:08:25;;;;;;;7.60;6.90;;;25.50;1.00;;;;;;5020472;28;20591;-80
2021/06/08 08:10:52;;;;;;;7.73;6.87;;;25.60;1.00;;;;;;5019640;28;20489;-80
2021/06/08 08:13:22;;;;;;;7.93;7.13;;;25.70;1.00;;;;;;5020854;28;20503;-79
2021/06/08 08:15:50;;;;;;;9.40;6.97;;;25.70;1.00;;;;;;5024899;28;20461;-81
2021/06/08 08:18:22;;;;;;;10.53;7.87;;;25.90;1.00;;;;;;5018700;28;20436;-83
2021/06/08 08:20:55;;;;;;;8.57;7.13;;;26.10;1.00;;;;;;5020259;28;20527;-80
2021/06/08 08:23:24;;;;;;;7.90;7.30;;;26.20;1.00;;;;;;5019517;28;20466;-80
2021/06/08 08:25:51;;;;;;;9.73;7.53;;;26.40;1.00;;;;;;5020894;28;20460;-79
2021/06/08 08:28:18;;;;;;;8.97;7.83;;;26.50;1.00;;;;;;5020416;28;20452;-81
2021/06/08 08:30:44;;;;;;;7.63;7.03;;;26.60;1.00;;;;;;4998360;28;20479;-80
2021/06/08 08:33:11;;;;;;;7.23;6.70;;;26.70;1.00;;;;;;5018255;28;20424;-80
2021/06/08 08:35:38;;;;;;;8.40;7.57;;;26.70;1.00;;;;;;5020376;28;20568;-79
2021/06/08 08:38:06;;;;;;;9.30;8.23;;;26.80;1.00;;;;;;5019699;28;20557;-80
2021/06/08 08:40:33;;;;;;;8.03;7.37;;;26.90;1.00;;;;;;5001043;28;20473;-80
2021/06/08 08:43:02;;;;;;;7.93;7.23;;;27.00;1.00;;;;;;5018475;28;20433;-80
2021/06/08 08:45:29;;;;;;;17.33;7.87;;;27.00;1.00;;;;;;5021037;28;20830;-80
2021/06/08 08:47:56;;;;;;;14.80;7.70;;;27.10;1.00;;;;;;5015569;28;20571;-81
2021/06/08 08:50:23;;;;;;;7.53;6.80;;;27.20;1.00;;;;;;5002544;28;20525;-82
2021/06/08 08:52:56;;;;;;;14.17;12.87;;;27.30;1.00;;;;;;5021817;28;21251;-81
2021/06/08 08:55:24;;;;;;;9.10;6.87;;;27.40;1.00;;;;;;5003575;28;20480;-81
2021/06/08 08:57:52;;;;;;;11.27;7.40;;;27.50;1.00;;;;;;5019475;28;20468;-82
2021/06/08 09:00:21;;;;;;;9.57;8.17;;;27.60;1.00;;;;;;5023257;28;21195;-81
2021/06/08 09:02:48;;;;;;;7.80;7.20;;;27.80;1.00;;;;;;5020155;28;20475;-80
2021/06/08 09:05:14;;;;;;;9.67;8.13;;;28.00;1.00;;;;;;5020707;28;20434;-80
2021/06/08 09:07:41;;;;;;;7.70;7.00;;;28.10;1.00;;;;;;5023337;28;20448;-80
2021/06/08 09:10:11;;;;;;;7.03;6.50;;;28.20;1.00;;;;;;5019899;28;20467;-80
2021/06/08 09:12:39;;;;;;;7.03;6.33;;;28.20;1.00;;;;;;5015997;28;20459;-80
2021/06/08 09:15:06;;;;;;;8.70;7.93;;;28.20;1.00;;;;;;5014376;28;20480;-81
2021/06/08 09:17:33;;;;;;;7.80;7.20;;;28.30;1.00;;;;;;5020461;28;20454;-81
2021/06/08 09:19:59;;;;;;;7.97;7.27;;;28.50;1.00;;;;;;5014824;28;20573;-81
2021/06/08 09:22:48;;;;;;;7.63;6.97;;;28.60;1.00;;;;;;5018586;28;20461;-82
2021/06/08 09:25:14;;;;;;;9.10;8.30;;;28.50;1.00;;;;;;5014495;28;20465;-81
2021/06/08 09:27:43;;;;;;;8.10;7.40;;;28.70;1.00;;;;;;5017494;28;20240;-79
2021/06/08 09:30:14;;;;;;;7.97;7.17;;;28.90;1.00;;;;;;5013674;28;20453;-78
2021/06/08 09:32:40;;;;;;;7.27;6.60;;;28.90;1.00;;;;;;5019929;28;20568;-79
2021/06/08 09:35:07;;;;;;;13.90;8.20;;;29.10;1.00;;;;;;5019038;28;20501;-79
2021/06/08 09:37:35;;;;;;;7.60;6.83;;;29.30;1.00;;;;;;5021694;28;20468;-79
2021/06/08 09:47:58;;;;;;;8.53;7.43;;;33.50;1.00;;;;;;3036837;22;20453;-77
2021/06/08 09:50:28;;;;;;;6.33;5.93;;;34.70;1.00;;;;;;5022581;28;22176;-77
2021/06/08 09:53:15;;;;;;;6.53;6.03;;;34.50;1.00;;;;;;5015852;28;20461;-77
2021/06/08 09:56:04;;;;;;;7.63;6.90;;;34.40;1.00;;;;;;5001945;28;20445;-79
2021/06/08 09:58:31;;;;;;;7.93;7.03;;;34.20;1.00;;;;;;5008779;28;20457;-78
2021/06/08 10:01:22;;;;;;;7.60;7.00;;;33.60;1.00;;;;;;5012850;28;21213;-78
2021/06/08 10:03:52;;;;;;;5.87;5.33;;;33.00;1.00;;;;;;5016458;28;20452;-75
2021/06/08 10:06:20;;;;;;;9.37;8.07;;;33.20;1.00;;;;;;5010133;28;20453;-74
2021/06/08 10:08:51;;;;;;;7.00;6.50;;;33.70;1.00;;;;;;5012337;28;20566;-75
2021/06/08 10:11:21;;;;;;;7.13;6.53;;;33.50;1.00;;;;;;5016873;28;21401;-77
2021/06/08 10:13:47;;;;;;;9.70;7.43;;;33.50;1.00;;;;;;5014624;28;20462;-77
2021/06/08 10:16:26;;;;;;;8.67;7.70;;;33.20;1.00;;;;;;4994845;28;20473;-74
2021/06/08 10:18:55;;;;;;;9.03;7.60;;;32.80;1.00;;;;;;5014377;28;20531;-77
2021/06/08 10:21:34;;;;;;;6.70;6.20;;;32.40;1.00;;;;;;5014533;28;20473;-76
2021/06/08 10:24:04;;;;;;;6.97;6.37;;;32.20;1.00;;;;;;5020797;28;20493;-74
2021/06/08 10:26:33;;;;;;;8.30;7.50;;;31.80;1.00;;;;;;5020585;28;20929;-76
2021/06/08 10:29:03;;;;;;;9.40;7.57;;;31.60;1.00;;;;;;5025810;28;20833;-75
2021/06/08 10:31:30;;;;;;;7.43;6.90;;;31.90;1.00;;;;;;5003169;28;20516;-75
2021/06/08 10:33:59;;;;;;;6.87;6.27;;;32.50;1.00;;;;;;5018977;28;20466;-74
2021/06/08 10:36:26;;;;;;;7.63;7.07;;;32.40;1.00;;;;;;5017096;28;20560;-76
2021/06/08 10:38:53;;;;;;;13.67;7.90;;;32.50;1.00;;;;;;5016103;28;20580;-76
2021/06/08 10:41:19;;;;;;;7.53;6.80;;;32.10;1.00;;;;;;5016979;28;20525;-75
2021/06/08 10:43:46;;;;;;;6.50;5.93;;;31.70;1.00;;;;;;5016755;28;20519;-74
2021/06/08 10:46:22;;;;;;;7.10;6.50;;;32.10;1.00;;;;;;5013802;28;20465;-76
2021/06/08 10:48:50;;;;;;;8.20;7.50;;;33.20;1.00;;;;;;5013966;28;20448;-75
2021/06/08 10:51:20;;;;;;;7.60;6.80;;;35.00;1.00;;;;;;5014411;28;21003;-77
2021/06/08 10:53:49;;;;;;;7.20;6.60;;;36.30;1.00;;;;;;5024720;28;20462;-76
2021/06/08 10:56:21;;;;;;;7.07;6.37;;;37.50;1.00;;;;;;5021950;28;20876;-75
2021/06/08 10:58:50;;;;;;;6.40;6.00;;;38.50;1.00;;;;;;5021243;28;20500;-78
2021/06/08 11:01:48;;;;;;;7.67;7.07;;;38.70;1.00;;;;;;5004096;28;20524;-77
2021/06/08 11:04:18;;;;;;;7.00;6.53;;;37.20;1.00;;;;;;5019474;28;20461;-76
2021/06/08 11:06:55;;;;;;;7.63;6.93;;;35.80;1.00;;;;;;5028673;28;20413;-78
2021/06/08 11:09:32;;;;;;;7.27;6.77;;;34.50;1.00;;;;;;5031368;28;20572;-78
2021/06/08 11:12:00;;;;;;;8.30;7.20;;;33.40;1.00;;;;;;5029672;28;20451;-75
2021/06/08 11:15:00;;;;;;;8.37;7.57;;;32.40;1.00;;;;;;5033972;28;20472;-74
2021/06/08 11:17:40;;;;;;;9.27;8.43;;;31.50;1.00;;;;;;5030348;28;20505;-76
2021/06/08 11:20:27;;;;;;;10.83;8.50;;;30.80;1.00;;;;;;5022700;28;20468;-78
2021/06/08 11:22:57;;;;;;;7.30;6.73;;;30.30;1.00;;;;;;5039097;28;20412;-78
2021/06/08 11:25:41;;;;;;;7.17;6.67;;;30.00;1.00;;;;;;5025037;28;20473;-79
2021/06/08 11:28:10;;;;;;;8.17;7.37;;;29.70;1.00;;;;;;5027622;28;20471;-79
2021/06/08 11:30:38;;;;;;;9.60;7.20;;;29.60;1.00;;;;;;5026066;28;20459;-78
2021/06/08 11:33:08;;;;;;;9.60;8.67;;;29.50;1.00;;;;;;5031413;28;20545;-78
2021/06/08 11:35:40;;;;;;;8.13;7.43;;;29.50;1.00;;;;;;5033291;28;20462;-78
2021/06/08 11:38:10;;;;;;;8.17;7.20;;;29.60;1.00;;;;;;5022304;28;20591;-76
2021/06/08 11:40:58;;;;;;;8.30;7.50;;;29.70;1.00;;;;;;5024282;28;20513;-78
2021/06/08 11:43:56;;;;;;;10.50;9.70;;;29.60;1.00;;;;;;5028368;28;20449;-77
2021/06/08 11:46:28;;;;;;;7.37;6.80;;;29.60;1.00;;;;;;5011374;28;20448;-79
2021/06/08 11:49:19;;;;;;;9.83;8.67;;;29.60;1.00;;;;;;5025838;28;20563;-77
2021/06/08 11:51:49;;;;;;;12.67;7.67;;;29.50;1.00;;;;;;5007974;28;20477;-79
2021/06/08 11:54:20;;;;;;;7.30;6.70;;;29.60;1.00;;;;;;5023181;28;20473;-78
2021/06/08 11:56:55;;;;;;;7.70;6.90;;;30.60;1.00;;;;;;5026188;28;20428;-79
2021/06/08 11:59:25;;;;;;;7.30;6.70;;;32.00;1.00;;;;;;5022127;28;20464;-77
2021/06/08 12:01:55;;;;;;;7.47;6.87;;;33.20;1.00;;;;;;5030029;28;20453;-80
2021/06/08 12:04:25;;;;;;;7.57;6.87;;;34.00;1.00;;;;;;5026816;28;20433;-76
2021/06/08 12:07:03;;;;;;;6.97;6.40;;;33.40;1.00;;;;;;5021048;28;20451;-75
2021/06/08 12:09:32;;;;;;;7.53;6.80;;;32.70;1.00;;;;;;5023200;28;20558;-77
2021/06/08 12:12:04;;;;;;;8.60;7.80;;;32.20;1.00;;;;;;5021697;28;20545;-75
2021/06/08 12:14:31;;;;;;;6.90;6.40;;;31.70;1.00;;;;;;5018477;28;20461;-76
2021/06/08 12:16:59;;;;;;;7.87;7.17;;;31.40;1.00;;;;;;5025922;28;20512;-78
2021/06/08 12:19:28;;;;;;;9.13;8.37;;;31.20;1.00;;;;;;5029459;28;20436;-79
2021/06/08 12:21:58;;;;;;;8.30;7.67;;;31.90;1.00;;;;;;5026370;28;20455;-76
2021/06/08 12:24:25;;;;;;;7.00;6.27;;;32.30;1.00;;;;;;5027298;28;20539;-78
2021/06/08 12:26:58;;;;;;;7.77;7.00;;;33.60;1.00;;;;;;5020073;28;20414;-79
2021/06/08 12:29:25;;;;;;;6.40;5.90;;;35.30;1.00;;;;;;5025215;28;20537;-77
2021/06/08 12:32:04;;;;;;;6.43;5.93;;;36.40;1.00;;;;;;5024358;28;20915;-80
2021/06/08 12:34:35;;;;;;;6.63;6.10;;;37.00;1.00;;;;;;5006792;28;21398;-79
2021/06/08 12:37:02;;;;;;;8.23;6.80;;;36.80;1.00;;;;;;5026806;28;20451;-77
2021/06/08 12:39:31;;;;;;;7.23;6.63;;;36.10;1.00;;;;;;5019972;28;21347;-78
2021/06/08 12:42:14;;;;;;;5.80;5.40;;;35.80;1.00;;;;;;5026276;28;20489;-78
2021/06/08 12:44:42;;;;;;;6.30;5.73;;;36.90;1.00;;;;;;5029956;28;20572;-77
2021/06/08 12:47:08;;;;;;;5.97;5.47;;;38.20;1.00;;;;;;5036028;28;20464;-80
2021/06/08 12:49:37;;;;;;;7.40;6.70;;;39.20;1.00;;;;;;5035045;28;20423;-79
2021/06/08 12:52:05;;;;;;;6.73;6.13;;;40.10;1.00;;;;;;5036802;28;20463;-77
2021/06/08 12:54:34;;;;;;;13.80;7.50;;;40.50;1.00;;;;;;5017003;28;20477;-76
2021/06/08 12:57:03;;;;;;;6.50;6.00;;;39.40;1.00;;;;;;5032834;28;21362;-80
2021/06/08 12:59:33;;;;;;;6.93;6.00;;;39.40;1.00;;;;;;5039573;28;21541;-79
2021/06/08 13:02:02;;;;;;;5.30;5.00;;;39.20;1.00;;;;;;5035655;28;20491;-78
2021/06/08 13:04:29;;;;;;;5.80;5.40;;;39.60;1.00;;;;;;5020085;28;20466;-79
2021/06/08 13:07:17;;;;;;;6.13;5.67;;;40.60;1.00;;;;;;5020597;28;20979;-76
2021/06/08 13:09:44;;;;;;;6.60;5.80;;;41.80;1.00;;;;;;5018810;28;20457;-79